Time;durP1;ratioP1;P1;durP2;ratioP2;P2;SDS_P1;SDS_P2;PMS_P1;PMS_P2;Temp;Humidity;BMP_temperature;BMP_pressure;BME280_temperature;BME280_humidity;BME280_pressure;Samples;Min_cycle;Max_cycle;Signal;HPM_P1;HPM_P2
2023/05/29 00:00:20;;;;;;;7.38;3.00;;;;;;;13.86;67.54;102172.63;5029721;28;20476;-78
2023/05/29 00:02:47;;;;;;;8.25;3.22;;;;;;;13.83;67.56;102177.06;5028895;28;20022;-77
2023/05/29 00:05:13;;;;;;;6.70;3.00;;;;;;;13.76;67.71;102182.41;5028226;28;20021;-78
2023/05/29 00:07:39;;;;;;;9.35;2.97;;;;;;;13.71;67.64;102194.69;5027479;28;20472;-78
2023/05/29 00:10:06;;;;;;;6.68;2.95;;;;;;;13.66;67.85;102196.53;5029542;28;20098;-78
2023/05/29 00:12:32;;;;;;;6.05;2.70;;;;;;;13.60;68.15;102192.25;5030278;28;20021;-78
2023/05/29 00:14:57;;;;;;;6.57;3.10;;;;;;;13.57;68.17;102196.66;5027881;28;20108;-78
2023/05/29 00:17:23;;;;;;;6.78;3.30;;;;;;;13.47;67.90;102202.06;5028382;28;20014;-78
2023/05/29 00:19:48;;;;;;;6.28;2.50;;;;;;;13.42;67.58;102203.88;5030122;28;20044;-78
2023/05/29 00:22:14;;;;;;;8.32;2.45;;;;;;;13.34;67.18;102201.34;5028895;28;20436;-78
2023/05/29 00:24:39;;;;;;;7.13;2.33;;;;;;;13.29;66.96;102195.31;5029918;28;20029;-78
2023/05/29 00:27:04;;;;;;;6.47;2.28;;;;;;;13.22;67.06;102198.94;5030272;28;20029;-78
2023/05/29 00:29:30;;;;;;;7.47;2.13;;;;;;;13.15;66.67;102198.13;5028766;28;20092;-78
2023/05/29 00:31:56;;;;;;;7.97;2.58;;;;;;;13.09;66.40;102195.63;5028934;28;20048;-78
2023/05/29 00:34:23;;;;;;;7.65;2.20;;;;;;;13.05;66.06;102204.41;5031571;28;20033;-78
2023/05/29 00:36:48;;;;;;;8.20;2.20;;;;;;;13.02;65.95;102204.44;5030044;28;20056;-78
2023/05/29 00:39:14;;;;;;;6.97;1.80;;;;;;;12.98;65.68;102203.63;5031633;28;20108;-78
2023/05/29 00:41:39;;;;;;;6.88;1.73;;;;;;;12.97;65.32;102211.50;5031611;28;20468;-78
2023/05/29 00:44:04;;;;;;;8.52;2.15;;;;;;;12.95;64.73;102208.03;5030236;28;20042;-78
2023/05/29 00:46:31;;;;;;;9.13;1.80;;;;;;;12.90;64.61;102216.78;5028726;28;20418;-78
2023/05/29 00:48:58;;;;;;;7.47;1.70;;;;;;;12.85;64.06;102221.19;5030632;28;20376;-77
2023/05/29 00:51:24;;;;;;;6.55;2.15;;;;;;;12.79;63.87;102217.81;5029861;28;20028;-77
2023/05/29 00:53:50;;;;;;;6.38;1.75;;;;;;;12.75;64.83;102222.22;5031287;28;20041;-78
2023/05/29 00:56:17;;;;;;;9.50;2.08;;;;;;;12.72;63.76;102220.47;5028431;28;20032;-77
2023/05/29 00:58:43;;;;;;;6.80;1.65;;;;;;;12.67;63.82;102230.13;5027318;28;20029;-78
2023/05/29 01:01:09;;;;;;;7.93;2.10;;;;;;;12.65;63.49;102229.28;5029489;28;20419;-78
2023/05/29 01:03:36;;;;;;;5.78;1.65;;;;;;;12.62;63.74;102231.94;5028421;28;20132;-78
2023/05/29 01:06:03;;;;;;;6.38;1.83;;;;;;;12.59;63.81;102238.06;5027291;28;20057;-77
2023/05/29 01:08:28;;;;;;;6.47;1.60;;;;;;;12.54;63.71;102233.78;5027152;28;20025;-77
2023/05/29 01:11:00;;;;;;;5.13;1.70;;;;;;;12.48;63.31;102244.28;5032992;28;20030;-77
2023/05/29 01:13:31;;;;;;;6.38;1.85;;;;;;;12.43;63.29;102236.50;5033043;28;20029;-77
2023/05/29 01:16:14;;;;;;;6.28;1.35;;;;;;;12.40;63.26;102242.63;5032159;28;20021;-77
2023/05/29 01:19:00;;;;;;;7.05;1.42;;;;;;;12.36;62.56;102229.63;5034328;28;20018;-77
2023/05/29 01:21:56;;;;;;;7.88;1.73;;;;;;;12.31;62.48;102237.50;5031050;28;20032;-77
2023/05/29 01:24:34;;;;;;;6.57;1.80;;;;;;;12.23;63.29;102240.19;5031862;28;20026;-77
2023/05/29 01:27:05;;;;;;;6.35;1.40;;;;;;;12.22;63.14;102243.69;5033741;28;20064;-77
2023/05/29 01:29:34;;;;;;;6.68;1.60;;;;;;;12.20;63.41;102245.44;5032701;28;20040;-77
2023/05/29 01:32:01;;;;;;;6.28;1.38;;;;;;;12.20;63.51;102245.44;5032281;28;20037;-77
2023/05/29 01:34:27;;;;;;;8.45;1.63;;;;;;;12.18;64.26;102247.19;5031679;28;20029;-77
2023/05/29 01:36:52;;;;;;;8.90;1.83;;;;;;;12.16;63.97;102248.94;5031803;28;20025;-78
2023/05/29 01:39:18;;;;;;;8.05;1.85;;;;;;;12.14;64.08;102242.88;5032148;28;20036;-78
2023/05/29 01:41:46;;;;;;;6.88;1.50;;;;;;;12.09;63.75;102250.75;5032262;28;20021;-81
2023/05/29 01:44:13;;;;;;;6.40;1.63;;;;;;;12.06;64.06;102247.31;5030287;28;20075;-78
2023/05/29 01:46:40;;;;;;;7.72;1.70;;;;;;;12.04;64.17;102243.84;5030690;28;20028;-78
2023/05/29 01:49:06;;;;;;;5.55;1.40;;;;;;;12.01;64.30;102246.50;5032129;28;20444;-78
2023/05/29 01:51:32;;;;;;;5.45;1.65;;;;;;;11.98;64.24;102248.25;5030740;28;20044;-77
2023/05/29 01:53:58;;;;;;;9.10;1.73;;;;;;;11.95;64.23;102243.03;5033435;28;20481;-77
2023/05/29 01:56:25;;;;;;;7.55;1.50;;;;;;;11.93;64.46;102247.41;5031681;28;20021;-77
2023/05/29 01:58:51;;;;;;;6.30;1.70;;;;;;;11.84;64.96;102243.13;5031644;28;20029;-77
2023/05/29 02:01:16;;;;;;;8.38;1.75;;;;;;;11.81;65.00;102237.06;5028333;28;20029;-77
2023/05/29 02:03:41;;;;;;;8.70;1.92;;;;;;;11.78;65.19;102237.97;5031009;28;20037;-78
2023/05/29 02:06:07;;;;;;;5.63;1.50;;;;;;;11.76;65.24;102238.88;5031629;28;20105;-77
2023/05/29 02:08:32;;;;;;;5.30;1.40;;;;;;;11.73;65.21;102233.66;5031747;28;20032;-77
2023/05/29 02:10:57;;;;;;;5.28;1.17;;;;;;;11.68;65.85;102239.78;5032041;28;20033;-77
2023/05/29 02:13:23;;;;;;;8.05;1.42;;;;;;;11.64;65.61;102243.28;5031533;28;20539;-77
2023/05/29 02:15:48;;;;;;;6.68;1.60;;;;;;;11.61;65.62;102245.06;5030273;28;20108;-77
2023/05/29 02:18:17;;;;;;;6.35;1.33;;;;;;;11.58;66.22;102245.94;5031479;28;20021;-77
2023/05/29 02:20:42;;;;;;;7.57;1.50;;;;;;;11.54;66.17;102241.63;5030540;28;20515;-77
2023/05/29 02:23:09;;;;;;;7.38;1.50;;;;;;;11.50;65.98;102238.19;5029909;28;20061;-77
2023/05/29 02:25:35;;;;;;;5.72;1.30;;;;;;;11.49;66.17;102240.78;5030074;28;20030;-77
2023/05/29 02:28:00;;;;;;;7.45;1.60;;;;;;;11.45;66.32;102233.84;5032022;28;20025;-77
2023/05/29 02:30:26;;;;;;;5.18;1.27;;;;;;;11.42;66.37;102242.56;5032550;28;20017;-77
2023/05/29 02:32:51;;;;;;;8.60;1.67;;;;;;;11.39;66.59;102248.69;5033224;28;20306;-77
2023/05/29 02:35:20;;;;;;;7.05;1.63;;;;;;;11.38;66.64;102252.16;5032895;28;20154;-77
2023/05/29 02:37:45;;;;;;;10.18;1.83;;;;;;;11.32;66.88;102246.97;5034237;28;20028;-77
2023/05/29 02:40:11;;;;;;;6.68;1.20;;;;;;;11.30;66.98;102248.72;5030475;28;20026;-77
2023/05/29 02:42:36;;;;;;;7.63;1.45;;;;;;;11.28;67.71;102258.28;5030695;28;20234;-77
2023/05/29 02:45:01;;;;;;;9.18;1.40;;;;;;;11.26;67.41;102256.56;5032300;28;20033;-77
2023/05/29 02:47:27;;;;;;;7.57;1.50;;;;;;;11.25;67.42;102260.94;5033029;28;20078;-77
2023/05/29 02:49:52;;;;;;;6.90;1.55;;;;;;;11.23;67.26;102260.06;5031583;28;20468;-77
2023/05/29 02:52:17;;;;;;;6.80;1.52;;;;;;;11.22;67.26;102258.34;5032372;28;20120;-77
2023/05/29 02:54:42;;;;;;;6.88;1.50;;;;;;;11.18;67.31;102274.84;5032862;28;20029;-77
2023/05/29 02:57:08;;;;;;;5.55;1.35;;;;;;;11.16;67.61;102266.16;5032532;28;20029;-77
2023/05/29 02:59:33;;;;;;;6.68;1.20;;;;;;;11.14;67.81;102265.31;5030027;28;20080;-77
2023/05/29 03:01:58;;;;;;;6.72;1.70;;;;;;;11.11;67.70;102261.00;5030882;28;20032;-77
2023/05/29 03:04:24;;;;;;;6.10;1.17;;;;;;;11.07;67.92;102265.34;5030723;28;20041;-78
2023/05/29 03:06:49;;;;;;;7.00;1.52;;;;;;;11.04;68.09;102270.59;5029935;28;20021;-78
2023/05/29 03:09:16;;;;;;;8.65;1.45;;;;;;;10.99;68.07;102264.53;5031241;28;20024;-77
2023/05/29 03:11:41;;;;;;;10.30;1.65;;;;;;;10.97;68.42;102266.25;5027785;28;20039;-77
2023/05/29 03:14:07;;;;;;;7.05;1.58;;;;;;;10.96;68.44;102254.09;5029074;28;20029;-78
2023/05/29 03:16:32;;;;;;;7.80;1.52;;;;;;;10.97;68.57;102263.66;5031137;28;20457;-77
2023/05/29 03:18:57;;;;;;;8.55;1.60;;;;;;;10.96;68.58;102267.13;5031407;28;20028;-77
2023/05/29 03:21:23;;;;;;;4.70;1.38;;;;;;;10.92;68.70;102263.69;5031289;28;20465;-78
2023/05/29 03:23:48;;;;;;;5.15;1.70;;;;;;;10.91;68.88;102268.91;5030578;28;20033;-77
2023/05/29 03:26:14;;;;;;;8.27;1.73;;;;;;;10.88;69.13;102264.56;5028789;28;20025;-77
2023/05/29 03:28:39;;;;;;;10.10;1.92;;;;;;;10.88;69.24;102261.09;5031403;28;20087;-77
2023/05/29 03:31:05;;;;;;;7.43;1.50;;;;;;;10.85;69.18;102263.72;5027649;28;20028;-77
2023/05/29 03:33:30;;;;;;;7.60;1.52;;;;;;;10.83;69.27;102266.34;5030228;28;20041;-77
2023/05/29 03:35:56;;;;;;;7.55;1.35;;;;;;;10.81;69.16;102273.28;5027679;28;20366;-77
2023/05/29 03:38:21;;;;;;;8.25;1.60;;;;;;;10.80;69.42;102270.66;5030577;28;20024;-77
2023/05/29 03:40:46;;;;;;;8.32;1.50;;;;;;;10.78;69.35;102279.34;5029558;28;20027;-78
2023/05/29 03:43:12;;;;;;;8.18;1.23;;;;;;;10.78;69.31;102273.28;5029838;28;20076;-77
2023/05/29 03:45:37;;;;;;;11.10;1.95;;;;;;;10.76;69.47;102273.28;5029360;28;20029;-77
2023/05/29 03:48:02;;;;;;;8.98;2.00;;;;;;;10.74;69.59;102271.56;5031247;28;20112;-77
2023/05/29 03:50:27;;;;;;;7.88;1.30;;;;;;;10.72;69.72;102275.91;5030277;28;20030;-77
2023/05/29 03:52:53;;;;;;;5.72;1.70;;;;;;;10.71;69.68;102271.56;5031813;28;20037;-77
2023/05/29 03:55:18;;;;;;;6.60;1.52;;;;;;;10.70;69.73;102281.13;5030121;28;20374;-77
2023/05/29 03:57:43;;;;;;;6.63;1.50;;;;;;;10.70;69.57;102280.25;5030285;28;20052;-77
2023/05/29 04:00:11;;;;;;;9.07;1.80;;;;;;;10.68;69.62;102288.06;5029598;28;20033;-77
2023/05/29 04:02:37;;;;;;;8.68;1.75;;;;;;;10.69;69.70;102288.91;5027008;28;20059;-77
2023/05/29 04:05:04;;;;;;;6.97;1.52;;;;;;;10.68;69.43;102288.06;5029164;28;20071;-77
2023/05/29 04:07:29;;;;;;;7.60;1.88;;;;;;;10.68;69.71;102290.66;5031920;28;20021;-77
2023/05/29 04:09:54;;;;;;;7.65;1.38;;;;;;;10.68;69.41;102292.38;5031088;28;20037;-77
2023/05/29 04:12:20;;;;;;;7.20;1.80;;;;;;;10.69;69.47;102299.34;5029157;28;20037;-77
2023/05/29 04:14:45;;;;;;;8.45;1.60;;;;;;;10.70;69.57;102301.06;5028905;28;20087;-77
2023/05/29 04:17:10;;;;;;;8.48;1.50;;;;;;;10.69;69.57;102296.72;5027562;28;20080;-77
2023/05/29 04:19:35;;;;;;;8.52;1.50;;;;;;;10.71;69.48;102305.41;5027713;28;20465;-77
2023/05/29 04:22:01;;;;;;;9.38;1.80;;;;;;;10.70;69.60;102314.97;5028271;28;20075;-77
2023/05/29 04:24:26;;;;;;;5.95;1.50;;;;;;;10.70;69.57;102314.97;5029144;28;20083;-77
2023/05/29 04:26:52;;;;;;;7.55;1.50;;;;;;;10.72;69.43;102307.13;5029541;28;20033;-78
2023/05/29 04:29:18;;;;;;;8.75;1.70;;;;;;;10.70;69.50;102303.66;5030148;28;20555;-77
2023/05/29 04:31:43;;;;;;;8.07;1.40;;;;;;;10.69;69.72;102302.81;5028213;28;20092;-77
2023/05/29 04:34:10;;;;;;;6.10;1.42;;;;;;;10.70;69.48;102306.28;5029006;28;20096;-77
2023/05/29 04:36:38;;;;;;;8.10;1.60;;;;;;;10.72;69.61;102304.53;5029974;28;20033;-77
2023/05/29 04:39:04;;;;;;;8.80;1.42;;;;;;;10.73;69.84;102314.97;5029016;28;20076;-77
2023/05/29 04:41:30;;;;;;;6.28;1.45;;;;;;;10.73;69.58;102317.56;5028243;28;22080;-77
2023/05/29 04:43:56;;;;;;;7.82;1.45;;;;;;;10.74;69.85;102324.50;5028511;28;20484;-77
2023/05/29 04:46:25;;;;;;;8.25;1.30;;;;;;;10.75;69.32;102315.81;5032560;28;20033;-77
2023/05/29 04:48:54;;;;;;;8.35;1.58;;;;;;;10.77;69.58;102319.25;5032576;28;20115;-77
2023/05/29 04:51:22;;;;;;;9.23;1.50;;;;;;;10.81;69.60;102317.53;5034215;28;20029;-77
2023/05/29 04:53:49;;;;;;;6.30;1.35;;;;;;;10.84;69.09;102309.72;5031613;28;20053;-77
2023/05/29 04:56:15;;;;;;;8.98;1.70;;;;;;;10.85;69.35;102313.19;5032874;28;20025;-77
2023/05/29 04:58:41;;;;;;;6.90;1.42;;;;;;;10.86;69.68;102312.31;5032207;28;20966;-77
2023/05/29 05:01:09;;;;;;;5.32;1.35;;;;;;;10.89;69.70;102317.50;5030972;28;20481;-77
2023/05/29 05:03:34;;;;;;;4.97;1.40;;;;;;;10.91;69.55;102315.78;5031285;28;21848;-77
2023/05/29 05:06:02;;;;;;;8.63;1.40;;;;;;;10.95;69.55;102314.88;5031449;28;20048;-77
2023/05/29 05:08:28;;;;;;;7.97;1.60;;;;;;;11.00;69.64;102320.94;5035072;28;20025;-77
2023/05/29 05:10:53;;;;;;;8.93;1.50;;;;;;;11.04;68.93;102317.47;5045734;28;20022;-77
2023/05/29 05:13:19;;;;;;;6.75;1.27;;;;;;;11.08;69.06;102318.31;5031921;28;20400;-77
2023/05/29 05:15:45;;;;;;;7.57;1.30;;;;;;;11.11;68.95;102320.00;5033047;28;20034;-77
2023/05/29 05:18:10;;;;;;;6.63;1.33;;;;;;;11.13;69.07;102332.19;5034411;28;20473;-77
2023/05/29 05:20:35;;;;;;;9.57;1.55;;;;;;;11.18;68.82;102330.44;5030758;28;20092;-77
2023/05/29 05:23:01;;;;;;;9.02;1.42;;;;;;;11.23;69.51;102338.22;5031432;28;20025;-77
2023/05/29 05:25:26;;;;;;;9.75;1.60;;;;;;;11.27;69.28;102339.06;5030428;28;20036;-77
2023/05/29 05:27:51;;;;;;;10.52;1.67;;;;;;;11.31;68.57;102343.41;5032902;28;20025;-77
2023/05/29 05:30:16;;;;;;;9.35;1.70;;;;;;;11.32;68.51;102348.59;5031976;28;20029;-77
2023/05/29 05:32:42;;;;;;;8.50;1.70;;;;;;;11.34;68.35;102346.00;5033286;28;20128;-77
2023/05/29 05:35:10;;;;;;;6.18;1.45;;;;;;;11.34;68.35;102346.00;5032879;28;20029;-77
2023/05/29 05:37:35;;;;;;;9.13;1.58;;;;;;;11.39;68.30;102347.69;5064407;28;20029;-77
2023/05/29 05:40:00;;;;;;;9.25;1.80;;;;;;;11.43;68.49;102350.28;5029199;28;20365;-77
2023/05/29 05:42:26;;;;;;;8.23;1.58;;;;;;;11.47;68.75;102352.88;5031079;28;20022;-78
2023/05/29 05:44:51;;;;;;;7.03;1.70;;;;;;;11.54;68.40;102340.66;5035948;28;20369;-77
2023/05/29 05:47:16;;;;;;;11.23;2.00;;;;;;;11.56;68.20;102344.13;5032695;28;20029;-77
2023/05/29 05:49:43;;;;;;;8.15;1.67;;;;;;;11.58;67.99;102345.00;5031972;28;20385;-77
2023/05/29 05:52:08;;;;;;;9.02;1.63;;;;;;;11.59;68.07;102349.34;5032213;28;20416;-77
2023/05/29 05:54:33;;;;;;;8.00;1.70;;;;;;;11.64;68.21;102342.34;5033763;28;20052;-77
2023/05/29 05:57:00;;;;;;;9.30;1.58;;;;;;;11.68;68.16;102335.38;5031538;28;20037;-78
2023/05/29 05:59:25;;;;;;;8.32;1.75;;;;;;;11.73;68.81;102330.97;5034468;28;20032;-78
2023/05/29 06:01:51;;;;;;;10.63;1.60;;;;;;;11.80;67.96;102337.00;5031867;28;20397;-78
2023/05/29 06:04:17;;;;;;;9.63;1.60;;;;;;;11.84;67.28;102336.13;5031699;28;20156;-78
2023/05/29 06:06:42;;;;;;;7.53;1.80;;;;;;;11.86;66.88;102344.81;5032604;28;20136;-77
2023/05/29 06:09:09;;;;;;;7.35;1.70;;;;;;;11.89;67.04;102342.19;5034336;28;20030;-77
2023/05/29 06:11:34;;;;;;;6.35;1.85;;;;;;;11.94;66.28;102358.69;5026952;28;20100;-78
2023/05/29 06:13:59;;;;;;;9.00;1.73;;;;;;;11.98;66.87;102352.56;5032053;28;20218;-77
2023/05/29 06:16:24;;;;;;;9.35;1.55;;;;;;;12.03;66.57;102352.56;5030742;28;20033;-77
2023/05/29 06:18:50;;;;;;;6.82;1.58;;;;;;;12.07;65.82;102351.63;5030654;28;20080;-77
2023/05/29 06:21:16;;;;;;;10.18;1.70;;;;;;;12.07;65.56;102353.41;5033509;28;20104;-78
2023/05/29 06:23:41;;;;;;;8.85;1.55;;;;;;;12.07;64.79;102361.22;5032226;28;20094;-77
2023/05/29 06:26:07;;;;;;;9.18;1.45;;;;;;;12.05;66.15;102363.81;5030331;28;20400;-77
2023/05/29 06:28:32;;;;;;;7.40;1.50;;;;;;;12.09;66.14;102369.91;5031705;28;20509;-78
2023/05/29 06:30:57;;;;;;;7.95;1.50;;;;;;;12.13;64.82;102366.38;5032691;28;20025;-77
2023/05/29 06:33:24;;;;;;;6.53;1.40;;;;;;;12.17;65.01;102365.47;5028752;28;20051;-77
2023/05/29 06:35:49;;;;;;;8.75;1.40;;;;;;;12.23;66.33;102364.56;5030839;28;20036;-77
2023/05/29 06:38:15;;;;;;;8.15;1.42;;;;;;;12.27;65.27;102364.53;5031959;28;20021;-77
2023/05/29 06:40:40;;;;;;;5.53;1.63;;;;;;;12.33;65.58;102374.06;5028227;28;20124;-77
2023/05/29 06:43:05;;;;;;;6.60;1.50;;;;;;;12.35;63.17;102368.81;5030532;28;20067;-77
2023/05/29 06:45:30;;;;;;;6.57;1.52;;;;;;;12.38;64.08;102368.78;5031283;28;20029;-77
2023/05/29 06:47:56;;;;;;;8.85;1.33;;;;;;;12.41;64.50;102358.34;5032848;28;20434;-78
2023/05/29 06:50:21;;;;;;;7.50;1.40;;;;;;;12.44;64.17;102364.38;5031736;28;20052;-77
2023/05/29 06:52:47;;;;;;;8.73;1.60;;;;;;;12.49;63.80;102359.13;5032423;28;20072;-77
2023/05/29 06:55:12;;;;;;;7.80;1.88;;;;;;;12.55;63.21;102364.28;5029420;28;20156;-77
2023/05/29 06:57:37;;;;;;;8.50;1.63;;;;;;;12.58;63.38;102369.47;5032562;28;20024;-77
2023/05/29 07:00:06;;;;;;;6.63;1.50;;;;;;;12.55;62.96;102364.28;5033078;28;20526;-77
2023/05/29 07:02:31;;;;;;;6.95;1.30;;;;;;;12.57;63.37;102370.34;5031734;28;20468;-77
2023/05/29 07:04:56;;;;;;;4.70;1.30;;;;;;;12.62;63.17;102366.84;5032014;28;20028;-77
2023/05/29 07:07:22;;;;;;;6.75;1.35;;;;;;;12.67;62.51;102367.66;5031681;28;20177;-77
2023/05/29 07:09:47;;;;;;;8.82;1.70;;;;;;;12.69;62.71;102373.72;5032097;28;20052;-77
2023/05/29 07:12:12;;;;;;;6.05;1.30;;;;;;;12.74;61.65;102379.78;5032060;28;20029;-77
2023/05/29 07:14:38;;;;;;;6.18;1.30;;;;;;;12.77;62.39;102371.91;5030506;28;20017;-77
2023/05/29 07:17:03;;;;;;;9.32;1.50;;;;;;;12.82;61.52;102372.72;5029734;28;20269;-78
2023/05/29 07:19:29;;;;;;;6.05;1.27;;;;;;;12.87;61.28;102367.47;5030117;28;20434;-78
2023/05/29 07:21:54;;;;;;;5.68;1.25;;;;;;;12.89;61.63;102366.56;5030133;28;20017;-77
2023/05/29 07:24:19;;;;;;;6.82;1.40;;;;;;;12.97;61.17;102381.28;5029251;28;20040;-77
2023/05/29 07:26:45;;;;;;;6.15;1.35;;;;;;;13.01;60.41;102378.63;5027323;28;20021;-77
2023/05/29 07:29:11;;;;;;;7.95;1.70;;;;;;;13.05;61.76;102375.09;5030656;28;20029;-77
2023/05/29 07:31:37;;;;;;;9.05;1.95;;;;;;;13.09;61.37;102375.03;5028254;28;20100;-77
2023/05/29 07:34:02;;;;;;;8.80;1.67;;;;;;;13.11;61.84;102386.34;5031470;28;20022;-77
2023/05/29 07:36:31;;;;;;;7.93;1.60;;;;;;;13.13;60.31;102388.06;5025583;28;20412;-77
2023/05/29 07:38:58;;;;;;;8.63;1.40;;;;;;;13.13;59.63;102385.47;5028542;28;20017;-77
2023/05/29 07:41:23;;;;;;;6.70;1.45;;;;;;;13.15;59.67;102388.03;5027093;28;20104;-77
2023/05/29 07:43:51;;;;;;;6.10;1.45;;;;;;;13.17;59.89;102387.13;5030230;28;20171;-78
2023/05/29 07:46:17;;;;;;;8.68;1.40;;;;;;;13.21;60.13;102395.81;5028747;28;20044;-78
2023/05/29 07:48:42;;;;;;;4.80;1.15;;;;;;;13.30;63.18;102387.00;5028411;28;20342;-78
2023/05/29 07:51:10;;;;;;;8.73;1.80;;;;;;;13.32;60.02;102375.63;5027895;28;20022;-78
2023/05/29 07:53:35;;;;;;;5.43;1.20;;;;;;;13.38;61.08;102371.22;5029009;28;20045;-78
2023/05/29 07:56:00;;;;;;;6.32;1.25;;;;;;;13.44;62.78;102390.34;5027207;28;20107;-78
2023/05/29 07:58:26;;;;;;;5.82;1.20;;;;;;;13.51;61.68;102391.97;5027311;28;20035;-78
2023/05/29 08:00:52;;;;;;;5.43;1.17;;;;;;;13.56;61.52;102397.16;5027847;28;20029;-78
2023/05/29 08:03:17;;;;;;;5.95;1.30;;;;;;;13.63;60.25;102392.72;5027290;28;20037;-79
2023/05/29 08:05:42;;;;;;;6.05;1.42;;;;;;;13.66;59.57;102398.75;5024257;28;20429;-79
2023/05/29 08:08:08;;;;;;;6.85;1.48;;;;;;;13.71;58.66;102388.22;5028471;28;20029;-78
2023/05/29 08:10:33;;;;;;;5.35;1.20;;;;;;;13.78;60.21;102395.09;5030147;28;20022;-79
2023/05/29 08:12:58;;;;;;;6.07;1.40;;;;;;;13.85;60.49;102393.25;5028159;28;20059;-79
2023/05/29 08:15:24;;;;;;;4.70;1.10;;;;;;;13.90;57.75;102398.44;5027844;28;20060;-79
2023/05/29 08:17:49;;;;;;;6.90;1.73;;;;;;;13.93;59.20;102398.38;5020617;28;20026;-79
2023/05/29 08:20:14;;;;;;;9.02;1.60;;;;;;;13.95;58.98;102402.69;5055561;28;20030;-79
2023/05/29 08:22:40;;;;;;;5.57;1.13;;;;;;;13.98;57.86;102401.81;5029369;28;20099;-79
2023/05/29 08:25:05;;;;;;;5.07;1.30;;;;;;;14.01;58.04;102406.97;5025103;28;20024;-79
2023/05/29 08:27:31;;;;;;;3.42;1.27;;;;;;;14.03;58.95;102405.19;5025556;28;20030;-79
2023/05/29 08:29:56;;;;;;;5.32;1.17;;;;;;;14.07;59.21;102401.66;5028209;28;20597;-79
2023/05/29 08:32:22;;;;;;;4.43;1.25;;;;;;;14.13;60.05;102399.84;5028672;28;20380;-78
2023/05/29 08:34:48;;;;;;;4.22;1.35;;;;;;;14.16;58.59;102399.78;5029965;28;20037;-79
2023/05/29 08:37:13;;;;;;;7.95;1.30;;;;;;;14.17;57.49;102402.38;5024200;28;20037;-80
2023/05/29 08:39:38;;;;;;;5.07;1.30;;;;;;;14.22;58.49;102404.91;5028844;28;20029;-80
2023/05/29 08:42:07;;;;;;;5.47;1.38;;;;;;;14.21;57.67;102405.81;5026294;28;20030;-80
2023/05/29 08:44:33;;;;;;;6.80;1.60;;;;;;;14.21;57.50;102405.81;5026518;28;21681;-79
2023/05/29 08:47:01;;;;;;;6.18;1.40;;;;;;;14.23;57.87;102402.28;5026052;28;20025;-78
2023/05/29 08:49:29;;;;;;;4.70;1.10;;;;;;;14.29;56.62;102406.56;5028601;28;20029;-78
2023/05/29 08:52:05;;;;;;;4.30;1.58;;;;;;;14.37;57.44;102419.53;5028408;28;20021;-78
2023/05/29 08:54:32;;;;;;;6.63;1.30;;;;;;;14.42;58.36;102402.84;5026993;28;20531;-79
2023/05/29 08:56:59;;;;;;;6.13;1.17;;;;;;;14.49;57.60;102416.69;5026976;28;20075;-79
2023/05/29 08:59:25;;;;;;;6.32;1.60;;;;;;;14.55;56.79;102408.75;5030074;28;20091;-78
2023/05/29 09:01:50;;;;;;;4.63;1.20;;;;;;;14.62;57.26;102414.72;5024663;28;20033;-78
2023/05/29 09:04:16;;;;;;;4.70;1.27;;;;;;;14.66;54.38;102415.53;5028917;28;20025;-79
2023/05/29 09:06:42;;;;;;;5.95;1.55;;;;;;;14.66;56.49;102413.78;5027245;28;20509;-79
2023/05/29 09:09:09;;;;;;;5.05;1.40;;;;;;;14.70;54.72;102412.00;5025656;28;20048;-79
2023/05/29 09:11:35;;;;;;;5.72;1.30;;;;;;;14.72;54.06;102421.56;5023363;28;20155;-79
2023/05/29 09:14:02;;;;;;;7.82;1.38;;;;;;;14.78;55.77;102420.56;5022755;28;20486;-79
2023/05/29 09:16:27;;;;;;;6.07;1.38;;;;;;;14.83;55.72;102407.41;5022141;28;20021;-78
2023/05/29 09:19:03;;;;;;;4.60;1.35;;;;;;;14.90;56.39;102409.00;5028396;28;20496;-79
2023/05/29 09:21:33;;;;;;;8.63;1.23;;;;;;;14.96;54.94;102411.53;5026754;28;20086;-79
2023/05/29 09:24:04;;;;;;;4.28;1.15;;;;;;;15.04;55.31;102411.38;5022299;28;20037;-78
2023/05/29 09:26:30;;;;;;;4.60;1.10;;;;;;;15.10;55.92;102415.63;5025286;28;20036;-77
2023/05/29 09:28:55;;;;;;;6.15;1.40;;;;;;;15.12;54.00;102413.84;5024474;28;20473;-78
2023/05/29 09:31:21;;;;;;;6.07;1.30;;;;;;;15.13;54.31;102405.09;5028429;28;20036;-78
2023/05/29 09:33:50;;;;;;;4.43;1.35;;;;;;;15.19;55.09;102412.84;5030629;28;20025;-77
2023/05/29 09:36:25;;;;;;;5.97;1.40;;;;;;;15.24;54.74;102408.34;5028229;28;20400;-78
2023/05/29 09:38:51;;;;;;;5.68;1.33;;;;;;;15.29;53.94;102417.00;5025899;28;20366;-78
2023/05/29 09:41:23;;;;;;;5.75;1.50;;;;;;;15.38;55.19;102412.44;5028854;28;20074;-78
2023/05/29 09:43:49;;;;;;;4.80;1.20;;;;;;;15.45;55.17;102414.06;5031661;28;20033;-78
2023/05/29 09:46:20;;;;;;;5.38;1.30;;;;;;;15.51;54.18;102411.31;5029455;28;20119;-78
2023/05/29 09:48:45;;;;;;;5.57;1.45;;;;;;;15.55;52.38;102407.72;5029294;28;20029;-78
2023/05/29 09:51:24;;;;;;;4.43;1.23;;;;;;;15.58;53.87;102401.56;5030532;28;20396;-79
2023/05/29 09:53:53;;;;;;;5.63;1.23;;;;;;;15.59;54.36;102414.63;5029701;28;20048;-78
2023/05/29 09:56:24;;;;;;;5.78;1.45;;;;;;;15.63;54.33;102397.94;5029894;28;20143;-79
2023/05/29 09:58:50;;;;;;;7.15;1.30;;;;;;;15.69;54.62;102399.53;5029045;28;20052;-78
2023/05/29 10:01:16;;;;;;;4.72;1.50;;;;;;;15.72;52.92;102399.47;5029048;28;20117;-78
2023/05/29 10:03:42;;;;;;;8.80;1.77;;;;;;;15.75;53.63;102404.66;5023060;28;20523;-78
2023/05/29 10:06:11;;;;;;;5.90;1.50;;;;;;;15.76;53.83;102400.25;5024832;28;20075;-78
2023/05/29 10:08:44;;;;;;;6.10;1.55;;;;;;;15.76;54.65;102397.63;5028617;28;20528;-78
2023/05/29 10:11:15;;;;;;;7.75;1.35;;;;;;;15.78;55.35;102401.97;5025017;28;20029;-78
2023/05/29 10:13:41;;;;;;;9.10;1.85;;;;;;;15.82;53.46;102405.38;5024759;28;20025;-78
2023/05/29 10:16:10;;;;;;;5.07;1.35;;;;;;;15.85;54.08;102394.84;5026113;28;20376;-78
2023/05/29 10:18:39;;;;;;;5.93;1.30;;;;;;;15.91;56.01;102404.34;5024475;28;20025;-79
2023/05/29 10:21:07;;;;;;;7.05;1.55;;;;;;;15.97;54.32;102400.72;5024712;28;20116;-78
2023/05/29 10:23:36;;;;;;;7.18;2.53;;;;;;;16.02;53.17;102407.56;5024724;28;20045;-78
2023/05/29 10:26:10;;;;;;;8.23;2.60;;;;;;;16.07;52.17;102395.22;5041470;28;20439;-78
2023/05/29 10:28:39;;;;;;;6.75;2.08;;;;;;;16.11;53.89;102390.72;5025868;28;20032;-78
2023/05/29 10:31:09;;;;;;;10.18;3.80;;;;;;;16.20;54.71;102385.28;5025812;28;20040;-78
2023/05/29 10:34:09;;;;;;;7.07;2.45;;;;;;;16.31;53.75;102392.00;5027720;28;20385;-79
2023/05/29 10:36:40;;;;;;;8.38;2.15;;;;;;;16.33;51.18;102388.44;5027619;28;20047;-80
2023/05/29 10:39:05;;;;;;;6.73;2.00;;;;;;;16.42;52.45;102394.38;5027359;28;20025;-80
2023/05/29 10:41:39;;;;;;;5.70;2.17;;;;;;;16.45;51.77;102382.00;5027002;28;20392;-79
2023/05/29 10:44:31;;;;;;;7.38;2.80;;;;;;;16.51;51.72;102389.75;5024042;28;20030;-79
2023/05/29 10:46:59;;;;;;;6.60;1.90;;;;;;;16.56;51.17;102397.50;5022286;28;20029;-77
2023/05/29 10:49:24;;;;;;;5.20;1.80;;;;;;;16.60;50.86;102403.53;5022633;28;20053;-78
2023/05/29 10:51:51;;;;;;;6.63;2.20;;;;;;;16.63;48.91;102390.31;5024345;28;20144;-78
2023/05/29 10:54:21;;;;;;;6.97;1.80;;;;;;;16.64;51.00;102389.41;5025154;28;20042;-77
2023/05/29 10:56:56;;;;;;;5.78;1.60;;;;;;;16.69;50.77;102387.53;5026057;28;20021;-78
2023/05/29 10:59:21;;;;;;;8.75;1.85;;;;;;;16.67;47.96;102376.19;5024022;28;20402;-77
2023/05/29 11:01:52;;;;;;;5.82;1.50;;;;;;;16.63;50.03;102379.81;5023558;28;20512;-78
2023/05/29 11:04:17;;;;;;;8.85;2.63;;;;;;;16.65;51.43;102385.88;5023013;28;20179;-77
2023/05/29 11:06:43;;;;;;;7.00;1.80;;;;;;;16.69;50.57;102384.91;5026112;28;20056;-77
2023/05/29 11:09:34;;;;;;;5.28;1.52;;;;;;;16.78;51.38;102382.03;5026128;28;20037;-77
2023/05/29 11:12:33;;;;;;;4.13;1.60;;;;;;;16.87;50.17;102385.31;5027053;28;20034;-78
2023/05/29 11:15:07;;;;;;;4.90;1.60;;;;;;;16.88;49.77;102384.41;5026059;28;20033;-77
2023/05/29 11:17:32;;;;;;;5.32;1.70;;;;;;;16.91;48.67;102379.06;5022614;28;20056;-78
2023/05/29 11:20:03;;;;;;;4.20;1.30;;;;;;;16.96;49.57;102377.19;5025375;28;20057;-78
2023/05/29 11:22:53;;;;;;;6.35;1.60;;;;;;;17.01;49.95;102375.31;5022418;28;20036;-79